sensor_id;sensor_type;location;lat;lon;timestamp;temperature;humidity
24814;DHT22;12904;50.088;11.414;2023-09-19T00:01:33;14.90;99.90
24814;DHT22;12904;50.088;11.414;2023-09-19T00:03:59;14.80;99.90
24814;DHT22;12904;50.088;11.414;2023-09-19T00:06:24;14.80;99.90
24814;DHT22;12904;50.088;11.414;2023-09-19T00:08:52;14.80;99.90
24814;DHT22;12904;50.088;11.414;2023-09-19T00:11:18;14.80;99.90
24814;DHT22;12904;50.088;11.414;2023-09-19T00:13:44;14.80;99.90
24814;DHT22;12904;50.088;11.414;2023-09-19T00:16:15;14.80;99.90
24814;DHT22;12904;50.088;11.414;2023-09-19T00:18:41;14.70;99.90
24814;DHT22;12904;50.088;11.414;2023-09-19T00:21:07;14.70;99.90
24814;DHT22;12904;50.088;11.414;2023-09-19T00:23:33;14.70;99.90
24814;DHT22;12904;50.088;11.414;2023-09-19T00:25:59;14.70;99.90
24814;DHT22;12904;50.088;11.414;2023-09-19T00:28:26;14.60;99.90
24814;DHT22;12904;50.088;11.414;2023-09-19T00:30:51;14.50;99.90
24814;DHT22;12904;50.088;11.414;2023-09-19T00:33:18;14.50;99.90
24814;DHT22;12904;50.088;11.414;2023-09-19T00:35:51;14.50;99.90
24814;DHT22;12904;50.088;11.414;2023-09-19T00:38:17;14.50;99.90
24814;DHT22;12904;50.088;11.414;2023-09-19T00:40:47;14.50;99.90
24814;DHT22;12904;50.088;11.414;2023-09-19T00:43:13;14.50;99.90
24814;DHT22;12904;50.088;11.414;2023-09-19T00:45:41;14.50;99.90
24814;DHT22;12904;50.088;11.414;2023-09-19T00:48:08;14.40;99.90
24814;DHT22;12904;50.088;11.414;2023-09-19T00:50:35;14.40;99.90
24814;DHT22;12904;50.088;11.414;2023-09-19T00:53:01;14.40;99.90
24814;DHT22;12904;50.088;11.414;2023-09-19T00:55:34;14.40;99.90
24814;DHT22;12904;50.088;11.414;2023-09-19T00:58:00;14.40;99.90
24814;DHT22;12904;50.088;11.414;2023-09-19T01:00:26;14.30;99.90
24814;DHT22;12904;50.088;11.414;2023-09-19T01:02:52;14.30;99.90
24814;DHT22;12904;50.088;11.414;2023-09-19T01:05:18;14.30;99.90
24814;DHT22;12904;50.088;11.414;2023-09-19T01:07:44;14.30;99.90
24814;DHT22;12904;50.088;11.414;2023-09-19T01:10:14;14.40;99.90
24814;DHT22;12904;50.088;11.414;2023-09-19T01:21:04;14.20;99.90
24814;DHT22;12904;50.088;11.414;2023-09-19T01:29:38;14.10;99.90
24814;DHT22;12904;50.088;11.414;2023-09-19T01:32:06;14.00;99.90
24814;DHT22;12904;50.088;11.414;2023-09-19T01:37:18;14.00;99.90
24814;DHT22;12904;50.088;11.414;2023-09-19T01:40:00;14.00;99.90
24814;DHT22;12904;50.088;11.414;2023-09-19T01:48:19;14.00;99.90
24814;DHT22;12904;50.088;11.414;2023-09-19T01:50:56;14.00;99.90
24814;DHT22;12904;50.088;11.414;2023-09-19T01:53:27;14.00;99.90
24814;DHT22;12904;50.088;11.414;2023-09-19T01:55:57;13.90;99.90
24814;DHT22;12904;50.088;11.414;2023-09-19T01:58:46;13.90;99.90
24814;DHT22;12904;50.088;11.414;2023-09-19T02:01:17;13.90;99.90
24814;DHT22;12904;50.088;11.414;2023-09-19T02:03:44;13.90;99.90
24814;DHT22;12904;50.088;11.414;2023-09-19T02:06:15;13.90;99.90
24814;DHT22;12904;50.088;11.414;2023-09-19T02:08:41;13.90;99.90
24814;DHT22;12904;50.088;11.414;2023-09-19T02:11:06;13.90;99.90
24814;DHT22;12904;50.088;11.414;2023-09-19T02:13:32;14.00;99.90
24814;DHT22;12904;50.088;11.414;2023-09-19T02:15:59;14.00;99.90
24814;DHT22;12904;50.088;11.414;2023-09-19T02:18:25;14.10;99.90
24814;DHT22;12904;50.088;11.414;2023-09-19T02:20:53;14.10;99.90
24814;DHT22;12904;50.088;11.414;2023-09-19T02:23:20;14.20;99.90
24814;DHT22;12904;50.088;11.414;2023-09-19T02:25:55;14.20;99.90
24814;DHT22;12904;50.088;11.414;2023-09-19T02:28:23;14.20;99.90
24814;DHT22;12904;50.088;11.414;2023-09-19T02:30:49;14.20;99.90
24814;DHT22;12904;50.088;11.414;2023-09-19T02:33:16;14.20;99.90
24814;DHT22;12904;50.088;11.414;2023-09-19T02:35:42;14.10;99.90
24814;DHT22;12904;50.088;11.414;2023-09-19T02:38:08;14.10;99.90
24814;DHT22;12904;50.088;11.414;2023-09-19T02:40:36;14.10;99.90
24814;DHT22;12904;50.088;11.414;2023-09-19T02:43:02;14.10;99.90
24814;DHT22;12904;50.088;11.414;2023-09-19T02:45:28;14.10;99.90
24814;DHT22;12904;50.088;11.414;2023-09-19T02:47:55;14.10;99.90
24814;DHT22;12904;50.088;11.414;2023-09-19T02:50:22;14.10;99.90
24814;DHT22;12904;50.088;11.414;2023-09-19T02:52:48;14.10;99.90
24814;DHT22;12904;50.088;11.414;2023-09-19T02:55:15;14.20;99.90
24814;DHT22;12904;50.088;11.414;2023-09-19T02:57:52;14.20;99.90
24814;DHT22;12904;50.088;11.414;2023-09-19T03:00:20;14.30;99.90
24814;DHT22;12904;50.088;11.414;2023-09-19T03:02:49;14.40;99.90
24814;DHT22;12904;50.088;11.414;2023-09-19T03:05:15;14.40;99.90
24814;DHT22;12904;50.088;11.414;2023-09-19T03:07:42;14.40;99.90
24814;DHT22;12904;50.088;11.414;2023-09-19T03:10:09;14.50;99.90
24814;DHT22;12904;50.088;11.414;2023-09-19T03:12:35;14.50;99.90
24814;DHT22;12904;50.088;11.414;2023-09-19T03:15:01;14.60;99.90
24814;DHT22;12904;50.088;11.414;2023-09-19T03:17:26;14.60;99.90
24814;DHT22;12904;50.088;11.414;2023-09-19T03:19:52;14.60;99.90
24814;DHT22;12904;50.088;11.414;2023-09-19T03:22:19;14.60;99.90
24814;DHT22;12904;50.088;11.414;2023-09-19T03:24:45;14.60;99.90
24814;DHT22;12904;50.088;11.414;2023-09-19T03:27:12;14.60;99.90
24814;DHT22;12904;50.088;11.414;2023-09-19T03:29:41;14.60;99.90
24814;DHT22;12904;50.088;11.414;2023-09-19T03:32:07;14.50;99.90
24814;DHT22;12904;50.088;11.414;2023-09-19T03:34:36;14.50;99.90
24814;DHT22;12904;50.088;11.414;2023-09-19T03:37:07;14.50;99.90
24814;DHT22;12904;50.088;11.414;2023-09-19T03:39:34;14.50;99.90
24814;DHT22;12904;50.088;11.414;2023-09-19T03:42:00;14.50;99.90
24814;DHT22;12904;50.088;11.414;2023-09-19T03:44:25;14.40;99.90
24814;DHT22;12904;50.088;11.414;2023-09-19T03:46:51;14.50;99.90
24814;DHT22;12904;50.088;11.414;2023-09-19T03:49:17;14.50;99.90
24814;DHT22;12904;50.088;11.414;2023-09-19T03:51:42;14.50;99.90
24814;DHT22;12904;50.088;11.414;2023-09-19T03:54:08;14.50;99.90
24814;DHT22;12904;50.088;11.414;2023-09-19T03:56:34;14.50;99.90
24814;DHT22;12904;50.088;11.414;2023-09-19T03:59:00;14.50;99.90
24814;DHT22;12904;50.088;11.414;2023-09-19T04:01:25;14.50;99.90
24814;DHT22;12904;50.088;11.414;2023-09-19T04:03:53;14.50;99.90
24814;DHT22;12904;50.088;11.414;2023-09-19T04:06:19;14.60;99.90
24814;DHT22;12904;50.088;11.414;2023-09-19T04:08:45;14.60;99.90
24814;DHT22;12904;50.088;11.414;2023-09-19T04:11:12;14.70;99.90
24814;DHT22;12904;50.088;11.414;2023-09-19T04:13:38;14.70;99.90
24814;DHT22;12904;50.088;11.414;2023-09-19T04:16:04;14.70;99.90
24814;DHT22;12904;50.088;11.414;2023-09-19T04:18:30;14.80;99.90
24814;DHT22;12904;50.088;11.414;2023-09-19T04:21:02;14.80;99.90
24814;DHT22;12904;50.088;11.414;2023-09-19T04:23:30;14.90;99.90
24814;DHT22;12904;50.088;11.414;2023-09-19T04:25:56;14.90;99.90
24814;DHT22;12904;50.088;11.414;2023-09-19T04:28:22;15.00;99.90
24814;DHT22;12904;50.088;11.414;2023-09-19T04:30:48;15.00;99.90
24814;DHT22;12904;50.088;11.414;2023-09-19T04:33:14;15.00;99.90
24814;DHT22;12904;50.088;11.414;2023-09-19T04:35:40;15.00;99.90
24814;DHT22;12904;50.088;11.414;2023-09-19T04:38:08;15.10;99.90
24814;DHT22;12904;50.088;11.414;2023-09-19T04:40:33;15.20;99.90
24814;DHT22;12904;50.088;11.414;2023-09-19T04:42:59;15.20;99.90
24814;DHT22;12904;50.088;11.414;2023-09-19T04:45:26;15.20;99.90
24814;DHT22;12904;50.088;11.414;2023-09-19T04:47:53;15.20;99.90
24814;DHT22;12904;50.088;11.414;2023-09-19T04:50:19;15.30;99.90
24814;DHT22;12904;50.088;11.414;2023-09-19T04:52:49;15.30;99.90
24814;DHT22;12904;50.088;11.414;2023-09-19T04:55:17;15.30;99.90
24814;DHT22;12904;50.088;11.414;2023-09-19T04:57:48;15.30;99.90
24814;DHT22;12904;50.088;11.414;2023-09-19T05:00:16;15.30;99.90
24814;DHT22;12904;50.088;11.414;2023-09-19T05:02:43;15.40;99.90
24814;DHT22;12904;50.088;11.414;2023-09-19T05:05:09;15.40;99.90
24814;DHT22;12904;50.088;11.414;2023-09-19T05:07:42;15.40;99.90
24814;DHT22;12904;50.088;11.414;2023-09-19T05:10:08;15.40;99.90
24814;DHT22;12904;50.088;11.414;2023-09-19T05:12:34;15.40;99.90
24814;DHT22;12904;50.088;11.414;2023-09-19T05:15:02;15.50;99.90
24814;DHT22;12904;50.088;11.414;2023-09-19T05:17:28;15.50;99.90
24814;DHT22;12904;50.088;11.414;2023-09-19T05:19:54;15.60;99.90
24814;DHT22;12904;50.088;11.414;2023-09-19T05:22:19;15.60;99.90
24814;DHT22;12904;50.088;11.414;2023-09-19T05:24:45;15.60;99.90
24814;DHT22;12904;50.088;11.414;2023-09-19T05:27:17;15.60;99.90
24814;DHT22;12904;50.088;11.414;2023-09-19T05:29:43;15.60;99.90
24814;DHT22;12904;50.088;11.414;2023-09-19T05:32:10;15.60;99.90
24814;DHT22;12904;50.088;11.414;2023-09-19T05:34:36;15.60;99.90
24814;DHT22;12904;50.088;11.414;2023-09-19T05:37:02;15.70;99.90
24814;DHT22;12904;50.088;11.414;2023-09-19T05:39:28;15.70;99.90
24814;DHT22;12904;50.088;11.414;2023-09-19T05:41:54;15.80;99.90
24814;DHT22;12904;50.088;11.414;2023-09-19T05:44:20;15.80;99.90
24814;DHT22;12904;50.088;11.414;2023-09-19T05:46:45;15.80;99.90
24814;DHT22;12904;50.088;11.414;2023-09-19T05:49:13;15.90;99.90
24814;DHT22;12904;50.088;11.414;2023-09-19T05:51:39;15.90;99.90
24814;DHT22;12904;50.088;11.414;2023-09-19T05:54:05;15.90;99.90
24814;DHT22;12904;50.088;11.414;2023-09-19T05:56:31;15.90;99.90
24814;DHT22;12904;50.088;11.414;2023-09-19T05:58:56;15.90;99.90
24814;DHT22;12904;50.088;11.414;2023-09-19T06:01:22;15.90;99.90
24814;DHT22;12904;50.088;11.414;2023-09-19T06:03:48;15.90;99.90
24814;DHT22;12904;50.088;11.414;2023-09-19T06:06:14;15.90;99.90
24814;DHT22;12904;50.088;11.414;2023-09-19T06:08:40;15.80;99.90
24814;DHT22;12904;50.088;11.414;2023-09-19T06:11:05;15.80;99.90
24814;DHT22;12904;50.088;11.414;2023-09-19T06:13:32;15.80;99.90
24814;DHT22;12904;50.088;11.414;2023-09-19T06:15:59;15.80;99.90
24814;DHT22;12904;50.088;11.414;2023-09-19T06:18:29;15.80;99.90
24814;DHT22;12904;50.088;11.414;2023-09-19T06:20:59;15.90;99.90
24814;DHT22;12904;50.088;11.414;2023-09-19T06:23:25;15.90;99.90
24814;DHT22;12904;50.088;11.414;2023-09-19T06:25:52;16.00;99.90
24814;DHT22;12904;50.088;11.414;2023-09-19T06:28:18;16.00;99.90
24814;DHT22;12904;50.088;11.414;2023-09-19T06:30:49;16.10;99.90
24814;DHT22;12904;50.088;11.414;2023-09-19T06:33:14;16.20;99.90
24814;DHT22;12904;50.088;11.414;2023-09-19T06:35:40;16.20;99.90
24814;DHT22;12904;50.088;11.414;2023-09-19T06:38:07;16.30;99.90
24814;DHT22;12904;50.088;11.414;2023-09-19T06:40:34;16.40;99.90
24814;DHT22;12904;50.088;11.414;2023-09-19T06:43:00;16.50;99.90
24814;DHT22;12904;50.088;11.414;2023-09-19T06:45:27;16.50;99.90
24814;DHT22;12904;50.088;11.414;2023-09-19T06:47:53;16.60;99.90
24814;DHT22;12904;50.088;11.414;2023-09-19T06:50:23;16.70;99.90
24814;DHT22;12904;50.088;11.414;2023-09-19T06:52:50;16.80;99.90
24814;DHT22;12904;50.088;11.414;2023-09-19T06:55:17;16.90;99.90
24814;DHT22;12904;50.088;11.414;2023-09-19T06:57:45;17.10;99.90
24814;DHT22;12904;50.088;11.414;2023-09-19T07:00:12;17.20;99.90
24814;DHT22;12904;50.088;11.414;2023-09-19T07:02:44;17.40;99.90
24814;DHT22;12904;50.088;11.414;2023-09-19T07:05:10;17.50;99.90
24814;DHT22;12904;50.088;11.414;2023-09-19T07:07:35;17.60;99.90
24814;DHT22;12904;50.088;11.414;2023-09-19T07:10:05;17.60;99.90
24814;DHT22;12904;50.088;11.414;2023-09-19T07:12:31;17.70;99.90
24814;DHT22;12904;50.088;11.414;2023-09-19T07:14:58;17.60;99.90
24814;DHT22;12904;50.088;11.414;2023-09-19T07:17:23;17.70;99.90
24814;DHT22;12904;50.088;11.414;2023-09-19T07:19:49;17.60;99.90
24814;DHT22;12904;50.088;11.414;2023-09-19T07:22:16;17.60;99.90
24814;DHT22;12904;50.088;11.414;2023-09-19T07:24:41;17.60;99.90
24814;DHT22;12904;50.088;11.414;2023-09-19T07:27:08;17.50;99.90
24814;DHT22;12904;50.088;11.414;2023-09-19T07:29:34;17.50;99.90
24814;DHT22;12904;50.088;11.414;2023-09-19T07:32:00;17.60;99.90
24814;DHT22;12904;50.088;11.414;2023-09-19T07:34:25;17.70;99.90
24814;DHT22;12904;50.088;11.414;2023-09-19T07:36:51;17.90;99.90
24814;DHT22;12904;50.088;11.414;2023-09-19T07:39:17;18.10;99.90
24814;DHT22;12904;50.088;11.414;2023-09-19T07:41:42;18.20;99.90
24814;DHT22;12904;50.088;11.414;2023-09-19T07:44:08;18.30;99.90
24814;DHT22;12904;50.088;11.414;2023-09-19T07:46:35;18.30;99.90
24814;DHT22;12904;50.088;11.414;2023-09-19T07:49:01;18.40;99.90
24814;DHT22;12904;50.088;11.414;2023-09-19T07:51:27;18.40;99.90
24814;DHT22;12904;50.088;11.414;2023-09-19T07:53:53;18.30;99.90
24814;DHT22;12904;50.088;11.414;2023-09-19T07:56:20;18.30;99.90
24814;DHT22;12904;50.088;11.414;2023-09-19T07:58:46;18.30;99.90
24814;DHT22;12904;50.088;11.414;2023-09-19T08:01:12;18.30;99.90
24814;DHT22;12904;50.088;11.414;2023-09-19T08:03:39;18.30;99.90
24814;DHT22;12904;50.088;11.414;2023-09-19T08:06:09;18.30;99.90
24814;DHT22;12904;50.088;11.414;2023-09-19T08:08:36;18.20;99.90
24814;DHT22;12904;50.088;11.414;2023-09-19T08:11:03;18.20;99.90
24814;DHT22;12904;50.088;11.414;2023-09-19T08:13:39;18.20;99.90
24814;DHT22;12904;50.088;11.414;2023-09-19T08:16:15;18.30;99.90
24814;DHT22;12904;50.088;11.414;2023-09-19T08:18:41;18.50;99.90
24814;DHT22;12904;50.088;11.414;2023-09-19T08:21:07;18.60;99.90
24814;DHT22;12904;50.088;11.414;2023-09-19T08:23:38;18.70;99.90
24814;DHT22;12904;50.088;11.414;2023-09-19T08:26:05;18.80;99.90
24814;DHT22;12904;50.088;11.414;2023-09-19T08:28:36;18.90;99.90
24814;DHT22;12904;50.088;11.414;2023-09-19T08:31:06;19.00;99.90
24814;DHT22;12904;50.088;11.414;2023-09-19T08:33:36;19.00;99.90
24814;DHT22;12904;50.088;11.414;2023-09-19T08:36:05;19.00;99.90
24814;DHT22;12904;50.088;11.414;2023-09-19T08:38:33;18.80;99.90
24814;DHT22;12904;50.088;11.414;2023-09-19T08:40:59;18.80;99.90
24814;DHT22;12904;50.088;11.414;2023-09-19T08:43:26;18.80;99.90
24814;DHT22;12904;50.088;11.414;2023-09-19T08:46:18;18.80;99.90
24814;DHT22;12904;50.088;11.414;2023-09-19T08:48:50;18.70;99.90
24814;DHT22;12904;50.088;11.414;2023-09-19T08:51:42;18.60;99.90
24814;DHT22;12904;50.088;11.414;2023-09-19T08:54:25;18.50;99.90
24814;DHT22;12904;50.088;11.414;2023-09-19T08:56:54;18.40;99.90
24814;DHT22;12904;50.088;11.414;2023-09-19T08:59:23;18.50;99.90
24814;DHT22;12904;50.088;11.414;2023-09-19T09:01:53;18.70;99.90
24814;DHT22;12904;50.088;11.414;2023-09-19T09:04:20;18.90;99.90
24814;DHT22;12904;50.088;11.414;2023-09-19T09:06:49;19.20;99.90
24814;DHT22;12904;50.088;11.414;2023-09-19T09:09:17;19.50;99.90
24814;DHT22;12904;50.088;11.414;2023-09-19T09:11:42;19.60;99.90
24814;DHT22;12904;50.088;11.414;2023-09-19T09:14:09;19.60;99.90
24814;DHT22;12904;50.088;11.414;2023-09-19T09:16:34;19.50;99.90
24814;DHT22;12904;50.088;11.414;2023-09-19T09:19:01;19.30;99.90
24814;DHT22;12904;50.088;11.414;2023-09-19T09:21:27;19.30;99.90
24814;DHT22;12904;50.088;11.414;2023-09-19T09:23:54;19.50;99.90
24814;DHT22;12904;50.088;11.414;2023-09-19T09:26:41;19.70;99.90
24814;DHT22;12904;50.088;11.414;2023-09-19T09:29:08;20.10;99.90
24814;DHT22;12904;50.088;11.414;2023-09-19T09:31:33;20.40;99.90
24814;DHT22;12904;50.088;11.414;2023-09-19T09:33:59;20.70;99.90
24814;DHT22;12904;50.088;11.414;2023-09-19T09:36:39;20.90;99.90
24814;DHT22;12904;50.088;11.414;2023-09-19T09:39:06;20.70;99.90
24814;DHT22;12904;50.088;11.414;2023-09-19T09:41:43;20.70;99.90
24814;DHT22;12904;50.088;11.414;2023-09-19T09:44:17;20.60;99.90
24814;DHT22;12904;50.088;11.414;2023-09-19T09:46:47;20.40;99.90
24814;DHT22;12904;50.088;11.414;2023-09-19T09:49:26;20.40;99.90
24814;DHT22;12904;50.088;11.414;2023-09-19T09:52:06;20.40;99.90
24814;DHT22;12904;50.088;11.414;2023-09-19T09:55:04;20.40;99.90
24814;DHT22;12904;50.088;11.414;2023-09-19T09:57:31;20.40;99.90
24814;DHT22;12904;50.088;11.414;2023-09-19T09:59:59;20.40;99.90
24814;DHT22;12904;50.088;11.414;2023-09-19T10:02:37;20.40;99.90
24814;DHT22;12904;50.088;11.414;2023-09-19T10:05:18;20.40;99.90
24814;DHT22;12904;50.088;11.414;2023-09-19T10:07:48;20.40;99.90
24814;DHT22;12904;50.088;11.414;2023-09-19T10:10:30;20.40;99.90
24814;DHT22;12904;50.088;11.414;2023-09-19T10:13:06;20.50;99.90
24814;DHT22;12904;50.088;11.414;2023-09-19T10:15:33;20.70;99.90
24814;DHT22;12904;50.088;11.414;2023-09-19T10:18:05;20.80;99.90
24814;DHT22;12904;50.088;11.414;2023-09-19T10:20:32;20.80;99.90
24814;DHT22;12904;50.088;11.414;2023-09-19T10:23:02;20.90;99.90
24814;DHT22;12904;50.088;11.414;2023-09-19T10:25:29;21.00;99.90
24814;DHT22;12904;50.088;11.414;2023-09-19T10:28:02;21.20;99.90
24814;DHT22;12904;50.088;11.414;2023-09-19T10:30:33;21.30;99.90
24814;DHT22;12904;50.088;11.414;2023-09-19T10:33:03;21.60;99.90
24814;DHT22;12904;50.088;11.414;2023-09-19T10:35:29;21.60;99.90
24814;DHT22;12904;50.088;11.414;2023-09-19T10:38:00;21.60;99.90
24814;DHT22;12904;50.088;11.414;2023-09-19T10:40:29;21.40;98.40
24814;DHT22;12904;50.088;11.414;2023-09-19T10:43:02;21.10;97.40
24814;DHT22;12904;50.088;11.414;2023-09-19T10:45:35;20.80;96.70
24814;DHT22;12904;50.088;11.414;2023-09-19T10:48:02;20.40;99.40
24814;DHT22;12904;50.088;11.414;2023-09-19T10:50:43;20.20;99.90
24814;DHT22;12904;50.088;11.414;2023-09-19T10:53:11;20.00;99.90
24814;DHT22;12904;50.088;11.414;2023-09-19T10:55:39;20.00;99.90
24814;DHT22;12904;50.088;11.414;2023-09-19T10:58:05;20.00;99.90
24814;DHT22;12904;50.088;11.414;2023-09-19T11:00:55;20.20;99.90
24814;DHT22;12904;50.088;11.414;2023-09-19T11:03:22;20.50;99.90
24814;DHT22;12904;50.088;11.414;2023-09-19T11:06:16;20.70;99.90
24814;DHT22;12904;50.088;11.414;2023-09-19T11:09:02;21.10;99.90
24814;DHT22;12904;50.088;11.414;2023-09-19T11:30:45;20.60;98.50
24814;DHT22;12904;50.088;11.414;2023-09-19T11:36:08;20.20;99.90
24814;DHT22;12904;50.088;11.414;2023-09-19T11:43:49;20.60;99.90
24814;DHT22;12904;50.088;11.414;2023-09-19T11:46:16;20.80;99.90
24814;DHT22;12904;50.088;11.414;2023-09-19T11:48:47;21.00;99.90
24814;DHT22;12904;50.088;11.414;2023-09-19T11:51:16;21.20;99.30
24814;DHT22;12904;50.088;11.414;2023-09-19T11:53:48;21.40;98.70
24814;DHT22;12904;50.088;11.414;2023-09-19T11:56:16;21.70;99.90
24814;DHT22;12904;50.088;11.414;2023-09-19T11:58:44;21.90;95.00
24814;DHT22;12904;50.088;11.414;2023-09-19T12:01:13;21.90;93.10
24814;DHT22;12904;50.088;11.414;2023-09-19T12:03:42;21.90;92.90
24814;DHT22;12904;50.088;11.414;2023-09-19T12:06:14;21.80;92.50
24814;DHT22;12904;50.088;11.414;2023-09-19T12:08:41;21.60;91.90
24814;DHT22;12904;50.088;11.414;2023-09-19T12:11:12;21.30;90.30
24814;DHT22;12904;50.088;11.414;2023-09-19T12:13:45;20.90;90.20
24814;DHT22;12904;50.088;11.414;2023-09-19T12:16:13;20.80;90.90
24814;DHT22;12904;50.088;11.414;2023-09-19T12:18:40;20.80;92.20
24814;DHT22;12904;50.088;11.414;2023-09-19T12:21:09;20.90;92.60
24814;DHT22;12904;50.088;11.414;2023-09-19T12:24:14;21.20;91.70
24814;DHT22;12904;50.088;11.414;2023-09-19T12:26:45;21.20;89.50
24814;DHT22;12904;50.088;11.414;2023-09-19T12:29:17;21.30;90.40
24814;DHT22;12904;50.088;11.414;2023-09-19T12:31:54;21.30;92.40
24814;DHT22;12904;50.088;11.414;2023-09-19T12:34:30;21.20;89.10
24814;DHT22;12904;50.088;11.414;2023-09-19T12:37:13;21.20;88.10
24814;DHT22;12904;50.088;11.414;2023-09-19T12:39:47;21.00;82.30
24814;DHT22;12904;50.088;11.414;2023-09-19T12:42:25;20.90;85.10
24814;DHT22;12904;50.088;11.414;2023-09-19T12:44:55;20.90;88.90
24814;DHT22;12904;50.088;11.414;2023-09-19T12:47:23;20.90;84.80
24814;DHT22;12904;50.088;11.414;2023-09-19T12:50:05;20.80;83.00
24814;DHT22;12904;50.088;11.414;2023-09-19T12:52:45;20.70;80.40
24814;DHT22;12904;50.088;11.414;2023-09-19T12:55:27;20.60;79.10
24814;DHT22;12904;50.088;11.414;2023-09-19T13:00:32;20.70;81.80
24814;DHT22;12904;50.088;11.414;2023-09-19T13:05:57;20.90;80.50
24814;DHT22;12904;50.088;11.414;2023-09-19T13:08:26;21.00;80.40
24814;DHT22;12904;50.088;11.414;2023-09-19T13:11:09;21.00;76.80
24814;DHT22;12904;50.088;11.414;2023-09-19T13:13:38;21.00;78.40
24814;DHT22;12904;50.088;11.414;2023-09-19T13:16:04;21.00;78.40
24814;DHT22;12904;50.088;11.414;2023-09-19T13:18:44;21.00;76.90
24814;DHT22;12904;50.088;11.414;2023-09-19T13:21:12;21.10;79.60
24814;DHT22;12904;50.088;11.414;2023-09-19T13:23:50;21.30;75.40
24814;DHT22;12904;50.088;11.414;2023-09-19T13:26:16;21.30;76.10
24814;DHT22;12904;50.088;11.414;2023-09-19T13:28:42;21.40;77.00
24814;DHT22;12904;50.088;11.414;2023-09-19T13:31:09;21.40;76.70
24814;DHT22;12904;50.088;11.414;2023-09-19T13:33:43;21.50;76.30
24814;DHT22;12904;50.088;11.414;2023-09-19T13:36:10;21.40;77.30
24814;DHT22;12904;50.088;11.414;2023-09-19T13:38:37;21.30;73.90
24814;DHT22;12904;50.088;11.414;2023-09-19T13:41:03;21.20;75.70
24814;DHT22;12904;50.088;11.414;2023-09-19T13:43:28;21.20;76.40
24814;DHT22;12904;50.088;11.414;2023-09-19T13:45:54;21.20;74.90
24814;DHT22;12904;50.088;11.414;2023-09-19T13:48:20;21.20;75.30
24814;DHT22;12904;50.088;11.414;2023-09-19T13:50:48;21.20;76.80
24814;DHT22;12904;50.088;11.414;2023-09-19T13:53:14;21.30;74.80
24814;DHT22;12904;50.088;11.414;2023-09-19T13:55:40;21.40;74.40
24814;DHT22;12904;50.088;11.414;2023-09-19T13:58:06;21.40;74.80
24814;DHT22;12904;50.088;11.414;2023-09-19T14:00:33;21.30;74.10
24814;DHT22;12904;50.088;11.414;2023-09-19T14:03:01;21.20;74.80
24814;DHT22;12904;50.088;11.414;2023-09-19T14:05:26;21.10;73.00
24814;DHT22;12904;50.088;11.414;2023-09-19T14:07:53;20.90;74.60
24814;DHT22;12904;50.088;11.414;2023-09-19T14:10:21;20.90;75.40
24814;DHT22;12904;50.088;11.414;2023-09-19T14:12:47;20.70;75.70
24814;DHT22;12904;50.088;11.414;2023-09-19T14:15:13;20.70;75.90
24814;DHT22;12904;50.088;11.414;2023-09-19T14:17:39;20.70;75.40
24814;DHT22;12904;50.088;11.414;2023-09-19T14:20:08;20.70;76.00
24814;DHT22;12904;50.088;11.414;2023-09-19T14:22:35;20.70;75.20
24814;DHT22;12904;50.088;11.414;2023-09-19T14:25:02;20.80;75.50
24814;DHT22;12904;50.088;11.414;2023-09-19T14:27:29;21.00;74.70
24814;DHT22;12904;50.088;11.414;2023-09-19T14:29:55;21.10;75.60
24814;DHT22;12904;50.088;11.414;2023-09-19T14:32:22;21.20;73.40
24814;DHT22;12904;50.088;11.414;2023-09-19T14:34:48;21.20;72.80
24814;DHT22;12904;50.088;11.414;2023-09-19T14:37:14;21.10;73.10
24814;DHT22;12904;50.088;11.414;2023-09-19T14:39:42;21.10;73.90
24814;DHT22;12904;50.088;11.414;2023-09-19T14:42:11;21.10;73.40
24814;DHT22;12904;50.088;11.414;2023-09-19T14:44:36;21.10;74.50
24814;DHT22;12904;50.088;11.414;2023-09-19T14:47:05;20.90;72.70
24814;DHT22;12904;50.088;11.414;2023-09-19T14:49:35;20.80;74.40
24814;DHT22;12904;50.088;11.414;2023-09-19T14:52:07;20.70;75.20
24814;DHT22;12904;50.088;11.414;2023-09-19T14:54:32;20.70;75.90
24814;DHT22;12904;50.088;11.414;2023-09-19T14:56:59;20.90;75.80
24814;DHT22;12904;50.088;11.414;2023-09-19T14:59:34;21.10;75.60
24814;DHT22;12904;50.088;11.414;2023-09-19T15:02:06;21.40;73.30
24814;DHT22;12904;50.088;11.414;2023-09-19T15:04:32;21.50;72.30
24814;DHT22;12904;50.088;11.414;2023-09-19T15:06:59;21.50;72.10
24814;DHT22;12904;50.088;11.414;2023-09-19T15:09:25;21.40;71.80
24814;DHT22;12904;50.088;11.414;2023-09-19T15:11:54;21.30;72.80
24814;DHT22;12904;50.088;11.414;2023-09-19T15:14:20;21.10;72.90
24814;DHT22;12904;50.088;11.414;2023-09-19T15:16:46;21.00;73.30
24814;DHT22;12904;50.088;11.414;2023-09-19T15:19:13;20.90;73.00
24814;DHT22;12904;50.088;11.414;2023-09-19T15:21:39;20.70;74.70
24814;DHT22;12904;50.088;11.414;2023-09-19T15:24:05;20.70;74.20
24814;DHT22;12904;50.088;11.414;2023-09-19T15:26:35;20.70;75.00
24814;DHT22;12904;50.088;11.414;2023-09-19T15:29:05;20.80;75.70
24814;DHT22;12904;50.088;11.414;2023-09-19T15:31:31;20.90;75.30
24814;DHT22;12904;50.088;11.414;2023-09-19T15:33:57;21.00;76.50
24814;DHT22;12904;50.088;11.414;2023-09-19T15:36:23;21.10;76.00
24814;DHT22;12904;50.088;11.414;2023-09-19T15:41:29;21.40;76.40
24814;DHT22;12904;50.088;11.414;2023-09-19T15:43:56;21.40;75.50
24814;DHT22;12904;50.088;11.414;2023-09-19T15:46:22;21.50;74.30
24814;DHT22;12904;50.088;11.414;2023-09-19T15:48:48;21.60;75.00
24814;DHT22;12904;50.088;11.414;2023-09-19T15:51:14;21.70;75.00
24814;DHT22;12904;50.088;11.414;2023-09-19T15:53:43;21.60;72.10
24814;DHT22;12904;50.088;11.414;2023-09-19T15:56:19;21.50;73.30
24814;DHT22;12904;50.088;11.414;2023-09-19T15:58:51;21.40;74.20
24814;DHT22;12904;50.088;11.414;2023-09-19T16:01:17;21.40;73.90
24814;DHT22;12904;50.088;11.414;2023-09-19T16:03:49;21.40;72.80
24814;DHT22;12904;50.088;11.414;2023-09-19T16:06:17;21.30;73.90
24814;DHT22;12904;50.088;11.414;2023-09-19T16:08:47;21.30;73.60
24814;DHT22;12904;50.088;11.414;2023-09-19T16:11:13;21.30;73.10
24814;DHT22;12904;50.088;11.414;2023-09-19T16:13:40;21.30;74.00
24814;DHT22;12904;50.088;11.414;2023-09-19T16:16:12;21.20;73.80
24814;DHT22;12904;50.088;11.414;2023-09-19T16:21:16;20.90;73.90
24814;DHT22;12904;50.088;11.414;2023-09-19T16:23:45;20.70;75.70
24814;DHT22;12904;50.088;11.414;2023-09-19T16:26:11;20.70;75.40